createdAt,value
2019-04-27T00:03:24.934Z,13.40
2019-04-27T00:08:35.081Z,13.30
2019-04-27T00:13:40.679Z,13.30
2019-04-27T00:18:56.403Z,13.30
2019-04-27T00:23:59.368Z,13.20
2019-04-27T00:29:06.217Z,13.10
2019-04-27T00:34:13.360Z,13.10
2019-04-27T00:39:35.281Z,12.90
2019-04-27T00:44:40.653Z,12.90
2019-04-27T00:49:45.863Z,12.80
2019-04-27T00:54:51.248Z,12.70
2019-04-27T01:00:05.177Z,12.60
2019-04-27T01:05:15.275Z,12.50
2019-04-27T01:10:20.534Z,12.50
2019-04-27T01:15:25.716Z,12.50
2019-04-27T01:20:31.362Z,12.40
2019-04-27T01:25:54.148Z,12.40
2019-04-27T01:31:00.874Z,12.30
2019-04-27T01:36:06.310Z,12.30
2019-04-27T01:41:11.444Z,12.30
2019-04-27T01:46:16.387Z,12.30
2019-04-27T01:51:22.348Z,12.30
2019-04-27T01:56:29.405Z,12.30
2019-04-27T02:07:23.674Z,12.00
2019-04-27T02:12:29.457Z,11.90
2019-04-27T02:17:35.705Z,11.80
2019-04-27T02:22:40.678Z,11.70
2019-04-27T02:27:49.020Z,11.60
2019-04-27T02:32:55.665Z,11.60
2019-04-27T02:38:00.869Z,11.40
2019-04-27T02:43:10.148Z,11.50
2019-04-27T02:48:14.633Z,11.50
2019-04-27T02:53:21.387Z,11.40
2019-04-27T02:58:26.715Z,11.20
2019-04-27T03:03:32.072Z,11.10
2019-04-27T03:08:56.286Z,11.00
2019-04-27T03:14:15.124Z,10.90
2019-04-27T03:19:32.989Z,10.80
2019-04-27T03:24:55.846Z,10.70
2019-04-27T03:30:01.918Z,10.70
2019-04-27T03:35:12.327Z,10.60
2019-04-27T03:40:14.205Z,10.60
2019-04-27T03:45:20.138Z,10.60
2019-04-27T03:50:30.411Z,10.60
2019-04-27T03:55:42.219Z,10.60
2019-04-27T04:00:44.439Z,10.50
2019-04-27T04:05:52.055Z,10.50
2019-04-27T04:11:00.683Z,10.50
2019-04-27T04:16:13.238Z,10.60
2019-04-27T04:21:19.427Z,10.90
2019-04-27T04:26:24.731Z,11.40
2019-04-27T04:31:33.169Z,11.60
2019-04-27T04:36:36.706Z,12.00
2019-04-27T04:41:59.688Z,12.40
2019-04-27T04:47:06.738Z,12.80
2019-04-27T04:52:11.887Z,13.10
2019-04-27T04:57:16.947Z,13.20
2019-04-27T05:02:22.099Z,13.30
2019-04-27T05:07:27.206Z,13.50
2019-04-27T05:12:32.283Z,13.50
2019-04-27T05:17:37.440Z,13.70
2019-04-27T05:22:42.570Z,13.80
2019-04-27T05:27:49.266Z,13.90
2019-04-27T05:32:54.235Z,13.90
2019-04-27T05:38:02.531Z,13.80
2019-04-27T05:43:05.983Z,13.70
2019-04-27T05:48:15.231Z,13.70
2019-04-27T05:53:20.371Z,13.80
2019-04-27T05:58:25.327Z,13.90
2019-04-27T06:03:30.223Z,14.00
2019-04-27T06:08:35.192Z,14.20
2019-04-27T06:13:40.355Z,14.30
2019-04-27T06:18:45.274Z,14.30
2019-04-27T06:23:50.576Z,14.40
2019-04-27T06:28:55.487Z,14.40
2019-04-27T06:34:00.810Z,14.50
2019-04-27T06:39:09.705Z,14.60
2019-04-27T06:44:14.552Z,14.70
2019-04-27T06:49:19.755Z,14.70
2019-04-27T06:54:24.872Z,14.80
2019-04-27T06:59:29.955Z,14.80
2019-04-27T07:04:35.698Z,14.80
2019-04-27T07:09:40.662Z,14.80
2019-04-27T07:14:52.841Z,14.80
2019-04-27T07:19:52.809Z,14.90
2019-04-27T07:24:59.050Z,15.10
2019-04-27T07:30:11.428Z,15.10
2019-04-27T07:35:13.779Z,15.10
2019-04-27T07:40:18.944Z,15.10
2019-04-27T07:45:29.474Z,15.10
2019-04-27T07:50:34.560Z,15.20
2019-04-27T07:55:39.551Z,15.10
2019-04-27T08:00:44.720Z,15.10
2019-04-27T08:05:49.769Z,15.10
2019-04-27T08:10:54.904Z,15.00
2019-04-27T08:16:00.037Z,15.00
2019-04-27T08:21:05.124Z,15.00
2019-04-27T08:26:11.795Z,15.00
2019-04-27T08:31:24.197Z,15.00
2019-04-27T08:36:29.402Z,14.90
2019-04-27T08:41:34.322Z,14.90
2019-04-27T08:46:39.862Z,14.90
2019-04-27T08:51:56.281Z,14.90
2019-04-27T08:56:51.777Z,14.90
2019-04-27T09:01:58.605Z,14.90
2019-04-27T09:07:21.577Z,14.90
2019-04-27T09:12:46.053Z,14.90
2019-04-27T09:18:01.062Z,14.90
2019-04-27T09:23:06.159Z,14.90
2019-04-27T09:28:11.318Z,14.90
2019-04-27T09:33:16.316Z,15.00
2019-04-27T09:38:21.646Z,15.00
2019-04-27T09:43:26.661Z,15.00
2019-04-27T09:48:31.800Z,15.00
2019-04-27T09:53:36.948Z,15.00
2019-04-27T09:58:42.090Z,14.90
2019-04-27T10:03:47.007Z,14.80
2019-04-27T10:08:52.149Z,14.80
2019-04-27T10:13:57.251Z,14.80
2019-04-27T10:19:02.384Z,14.70
2019-04-27T10:24:07.615Z,14.60
2019-04-27T10:29:12.679Z,14.40
2019-04-27T10:34:17.820Z,14.30
2019-04-27T10:39:22.910Z,14.20
2019-04-27T10:44:28.013Z,14.20
2019-04-27T10:49:33.528Z,14.10
2019-04-27T10:54:38.531Z,14.10
2019-04-27T10:59:43.476Z,14.00
2019-04-27T11:10:28.309Z,14.00
2019-04-27T11:15:33.510Z,13.90
2019-04-27T11:20:38.491Z,13.80
2019-04-27T11:25:43.591Z,13.90
2019-04-27T11:30:48.574Z,13.90
2019-04-27T11:35:55.082Z,14.00
2019-04-27T11:41:00.404Z,14.10
2019-04-27T11:46:06.179Z,14.10
2019-04-27T11:51:11.706Z,14.20
2019-04-27T11:56:17.753Z,14.20
2019-04-27T12:01:23.014Z,14.40
2019-04-27T12:06:28.274Z,14.60
2019-04-27T12:11:33.367Z,14.80
2019-04-27T12:16:38.604Z,15.00
2019-04-27T12:21:43.742Z,15.10
2019-04-27T12:26:50.383Z,15.10
2019-04-27T12:31:56.223Z,15.10
2019-04-27T12:37:03.029Z,15.00
2019-04-27T12:42:08.215Z,15.10
2019-04-27T12:47:13.360Z,15.00
2019-04-27T12:52:19.083Z,14.90
2019-04-27T12:57:26.324Z,14.80
2019-04-27T13:02:33.191Z,14.90
2019-04-27T13:07:38.506Z,14.90
2019-04-27T13:12:43.651Z,14.90
2019-04-27T13:17:48.954Z,14.80
2019-04-27T13:22:54.094Z,14.70
2019-04-27T13:27:59.366Z,14.60
2019-04-27T13:33:04.514Z,14.40
2019-04-27T13:38:09.997Z,14.30
2019-04-27T13:43:44.578Z,14.20
2019-04-27T13:49:03.531Z,14.10
2019-04-27T13:54:17.293Z,14.20
2019-04-27T13:59:15.215Z,14.20
2019-04-27T14:04:20.359Z,14.10
2019-04-27T14:09:25.488Z,14.10
2019-04-27T14:14:30.684Z,14.00
2019-04-27T14:19:35.835Z,13.90
2019-04-27T14:24:41.483Z,13.90
2019-04-27T14:29:46.563Z,13.90
2019-04-27T14:34:51.646Z,14.00
2019-04-27T14:39:57.892Z,14.00
2019-04-27T14:45:05.545Z,13.90
2019-04-27T14:50:10.500Z,13.90
2019-04-27T14:55:15.738Z,13.80
2019-04-27T15:00:22.079Z,13.80
2019-04-27T15:05:27.018Z,13.80
2019-04-27T15:10:33.002Z,13.80
2019-04-27T15:15:39.072Z,13.70
2019-04-27T15:20:46.662Z,13.70
2019-04-27T15:25:51.941Z,13.60
2019-04-27T15:30:59.522Z,13.60
2019-04-27T15:36:23.399Z,13.50
2019-04-27T15:41:31.523Z,13.50
2019-04-27T15:46:36.841Z,13.50
2019-04-27T15:51:42.091Z,13.40
2019-04-27T15:56:47.272Z,13.40
2019-04-27T16:01:52.397Z,13.40
2019-04-27T16:06:58.225Z,13.30
2019-04-27T16:12:12.096Z,13.30
2019-04-27T16:17:11.612Z,13.10
2019-04-27T16:22:18.430Z,13.10
2019-04-27T16:27:25.896Z,13.00
2019-04-27T16:32:30.832Z,13.00
2019-04-27T16:37:40.547Z,13.00
2019-04-27T16:42:50.736Z,13.00
2019-04-27T16:47:56.582Z,13.00
2019-04-27T16:53:01.089Z,13.00
2019-04-27T16:58:09.645Z,13.00
2019-04-27T17:03:13.141Z,12.90
2019-04-27T17:08:22.355Z,12.90
2019-04-27T17:13:25.783Z,12.90
2019-04-27T17:18:35.428Z,12.90
2019-04-27T17:23:40.867Z,12.80
2019-04-27T17:28:51.028Z,12.80
2019-04-27T17:34:05.516Z,12.80
2019-04-27T17:39:11.629Z,12.80
2019-04-27T17:44:22.764Z,12.80
2019-04-27T17:49:25.522Z,12.80
2019-04-27T17:54:30.705Z,12.70
2019-04-27T17:59:37.465Z,12.70
2019-04-27T18:04:42.568Z,12.70
2019-04-27T18:09:48.386Z,12.60
2019-04-27T18:14:53.816Z,12.50
2019-04-27T18:20:00.618Z,12.50
2019-04-27T18:25:09.820Z,12.40
2019-04-27T18:30:20.234Z,12.30
2019-04-27T18:35:46.755Z,12.40
2019-04-27T18:40:54.059Z,12.30
2019-04-27T18:45:59.499Z,12.30
2019-04-27T18:51:09.978Z,12.20
2019-04-27T18:56:15.658Z,12.20
2019-04-27T19:01:21.004Z,12.10
2019-04-27T19:06:26.410Z,12.10
2019-04-27T19:11:31.681Z,12.10
2019-04-27T19:16:38.395Z,12.10
2019-04-27T19:21:43.700Z,12.00
2019-04-27T19:26:50.785Z,11.90
2019-04-27T19:31:58.665Z,11.90
2019-04-27T19:37:04.770Z,11.80
2019-04-27T19:42:10.031Z,11.80
2019-04-27T19:47:15.751Z,11.80
2019-04-27T19:52:22.654Z,11.80
2019-04-27T19:57:36.312Z,11.70
2019-04-27T20:02:38.196Z,11.70
2019-04-27T20:07:43.752Z,11.70
2019-04-27T20:12:50.849Z,11.70
2019-04-27T20:17:56.155Z,11.70
2019-04-27T20:23:01.832Z,11.70
2019-04-27T20:28:07.474Z,11.60
2019-04-27T20:33:13.192Z,11.60
2019-04-27T20:38:18.792Z,11.50
2019-04-27T20:43:24.894Z,11.50
2019-04-27T20:48:31.277Z,11.40
2019-04-27T20:53:47.230Z,11.40
2019-04-27T20:58:52.831Z,11.40
2019-04-27T21:04:00.932Z,11.30
2019-04-27T21:09:11.326Z,11.30
2019-04-27T21:14:16.935Z,11.30
2019-04-27T21:19:22.085Z,11.30
2019-04-27T21:24:27.693Z,11.30
2019-04-27T21:29:32.841Z,11.30
2019-04-27T21:34:38.397Z,11.30
2019-04-27T21:39:43.836Z,11.20
2019-04-27T21:44:50.619Z,11.20
2019-04-27T21:50:16.240Z,11.10
2019-04-27T21:55:23.233Z,11.10
2019-04-27T22:00:42.817Z,11.00
2019-04-27T22:05:48.795Z,11.00
2019-04-27T22:10:54.316Z,11.00
2019-04-27T22:15:59.915Z,11.00
2019-04-27T22:21:05.534Z,11.00
2019-04-27T22:26:11.262Z,11.00
2019-04-27T22:31:17.077Z,11.00
2019-04-27T22:36:22.345Z,11.00
2019-04-27T22:41:31.253Z,10.90
2019-04-27T22:46:37.490Z,10.80
2019-04-27T22:51:43.125Z,10.80
2019-04-27T22:56:50.961Z,10.70
2019-04-27T23:02:03.578Z,10.60
2019-04-27T23:07:08.943Z,10.50
2019-04-27T23:12:14.123Z,10.40
2019-04-27T23:17:22.620Z,10.40
2019-04-27T23:22:28.121Z,10.40
2019-04-27T23:27:33.329Z,10.40
2019-04-27T23:32:41.213Z,10.40
2019-04-27T23:37:46.961Z,10.30
2019-04-27T23:42:52.374Z,10.30
2019-04-27T23:47:58.055Z,10.30
2019-04-27T23:53:05.015Z,10.20
2019-04-27T23:58:10.213Z,10.20
